Terminal Aerodrome Forecast
Issued by NWS Louisville, KY

Home | Current Version | Previous Version | Text Only | Print | Product List | Glossary On
Versions: 1 2 3 4 5 6 7 8 9 10 11 12 13 14 15 16 17 18 19 20 21
586
FTUS43 KLMK 300520
TAFSDF
TAF
KSDF 300520Z 3006/3112 12010KT P6SM SCT060
     FM301400 17013G22KT P6SM BKN060
     FM301600 17017G33KT P6SM OVC035
     FM302200 20014G25KT P6SM -SHRA VCTS OVC035CB
      TEMPO 3023/3103 4SM -TSRA BKN025CB
     FM310300 23010KT P6SM -SHRA VCTS BKN035CB=

USA.gov is the U.S. government's official web portal to all federal, state and local government web resources and services.